Foxfire, North Carolina
Current Conditions -  °F | °C
As of 11:15 AM on Friday 24 Oct 2014 (Local Time) from KSOP Reporting Station
Clear Clear  
Wind Chill: 61°   Ceiling: Unl
Heat Index: 61°   Visibility: 10mi
Dew Point: 41°   Wind: 5mph
Humidity: 48%   Direction: 350°N
Pressure: 30.07"   Gusts: NA
Location:  35.2008°N, 79.6471°W
Report Text: KSOP 241515Z AUTO 35004KT 10SM CLR 16/05 A3007 RMK AO1
Loading
Personal Weather Stations






























Interactive Weather Map
Tropical Storm Tracking
New forecast layout! Learn more

10-Day Weather Forecast

Advertisements
Track Severe Weather on mobile